Time;durP1;ratioP1;P1;durP2;ratioP2;P2;SDS_P1;SDS_P2;PMS_P1;PMS_P2;Temp;Humidity;BMP_temperature;BMP_pressure;BME280_temperature;BME280_humidity;BME280_pressure;Samples;Min_cycle;Max_cycle;Signal;HPM_P1;HPM_P2
2024/01/19 00:01:22;;;;;;;11.77;9.93;;;7.00;99.90;;;;;;4927815;28;20768;-74
2024/01/19 00:03:48;;;;;;;11.32;9.93;;;6.80;99.90;;;;;;4928404;28;20497;-73
2024/01/19 00:06:15;;;;;;;13.25;10.93;;;6.60;99.90;;;;;;4926492;28;20036;-72
2024/01/19 00:08:40;;;;;;;13.07;11.25;;;6.50;99.90;;;;;;4927690;28;20046;-73
2024/01/19 00:11:11;;;;;;;14.65;11.35;;;6.30;99.90;;;;;;4930045;28;20027;-72
2024/01/19 00:13:37;;;;;;;15.63;11.35;;;6.20;99.90;;;;;;4924939;28;20083;-74
2024/01/19 00:16:03;;;;;;;15.25;11.27;;;6.10;99.90;;;;;;4928282;28;20066;-70
2024/01/19 00:18:29;;;;;;;13.77;10.48;;;6.00;99.90;;;;;;4930031;28;20452;-70
2024/01/19 00:20:55;;;;;;;16.27;10.43;;;5.90;99.90;;;;;;4934775;28;20031;-71
2024/01/19 00:23:20;;;;;;;14.65;12.05;;;5.90;99.90;;;;;;4931268;28;20388;-71
2024/01/19 00:25:46;;;;;;;14.23;11.32;;;5.80;99.90;;;;;;4933724;28;20528;-70
2024/01/19 00:28:11;;;;;;;15.60;11.35;;;5.80;99.90;;;;;;4932769;28;20416;-72
2024/01/19 00:30:37;;;;;;;17.33;11.27;;;5.70;99.90;;;;;;4928620;28;20406;-72
2024/01/19 00:33:03;;;;;;;15.23;11.05;;;5.60;99.90;;;;;;4930400;28;20020;-71
2024/01/19 00:35:29;;;;;;;18.75;12.63;;;5.50;99.90;;;;;;4931989;28;20083;-71
2024/01/19 00:37:55;;;;;;;19.35;12.20;;;5.40;99.90;;;;;;4933544;28;20548;-69
2024/01/19 00:40:20;;;;;;;21.35;12.52;;;5.30;99.90;;;;;;4933428;28;20031;-66
2024/01/19 00:42:46;;;;;;;19.42;10.90;;;5.20;99.90;;;;;;4932338;28;20097;-67
2024/01/19 00:45:12;;;;;;;16.88;11.20;;;5.20;99.90;;;;;;4930802;28;20042;-67
2024/01/19 00:47:38;;;;;;;17.63;12.43;;;5.10;99.90;;;;;;4932259;28;20381;-66
2024/01/19 00:50:06;;;;;;;17.83;10.88;;;5.00;99.90;;;;;;4933245;28;20042;-70
2024/01/19 00:52:31;;;;;;;17.55;10.52;;;4.90;99.90;;;;;;4931033;28;20032;-68
2024/01/19 00:54:57;;;;;;;14.20;9.10;;;4.90;99.90;;;;;;4930385;28;21964;-73
2024/01/19 00:57:23;;;;;;;12.75;9.30;;;4.80;99.90;;;;;;4936204;28;20476;-69
2024/01/19 00:59:48;;;;;;;12.18;8.38;;;4.80;99.90;;;;;;4931628;28;20677;-68
2024/01/19 01:02:14;;;;;;;10.63;7.97;;;4.80;99.90;;;;;;4926970;28;20035;-70
2024/01/19 01:04:40;;;;;;;9.77;8.13;;;4.70;99.90;;;;;;4930276;28;20672;-70
2024/01/19 01:07:05;;;;;;;10.95;8.32;;;4.60;99.90;;;;;;4930019;28;20048;-68
2024/01/19 01:09:31;;;;;;;9.00;7.10;;;4.60;99.90;;;;;;4931372;28;21503;-69
2024/01/19 01:11:57;;;;;;;10.13;7.65;;;4.50;99.90;;;;;;4933847;28;20031;-69
2024/01/19 01:14:22;;;;;;;9.85;7.55;;;4.60;99.90;;;;;;4931719;28;20027;-70
2024/01/19 01:16:48;;;;;;;9.95;7.32;;;4.50;99.90;;;;;;4925974;28;20042;-70
2024/01/19 01:19:14;;;;;;;10.10;7.63;;;4.50;99.90;;;;;;4928986;28;20572;-70
2024/01/19 01:21:39;;;;;;;9.18;7.70;;;4.30;99.90;;;;;;4931345;28;20039;-72
2024/01/19 01:24:05;;;;;;;9.75;7.53;;;4.30;99.90;;;;;;4932282;28;20027;-72
2024/01/19 01:26:31;;;;;;;10.68;7.82;;;4.30;99.90;;;;;;4930991;28;20582;-72
2024/01/19 01:28:56;;;;;;;10.25;7.93;;;4.20;99.90;;;;;;4922967;28;20045;-71
2024/01/19 01:31:22;;;;;;;9.98;7.75;;;4.10;99.90;;;;;;4925146;28;20047;-71
2024/01/19 01:33:48;;;;;;;9.82;7.57;;;4.10;99.90;;;;;;4929832;28;20027;-71
2024/01/19 01:36:14;;;;;;;8.68;6.70;;;4.00;99.90;;;;;;4927891;28;20435;-72
2024/01/19 01:38:40;;;;;;;8.85;6.70;;;4.00;99.90;;;;;;4927181;28;20480;-71
2024/01/19 01:41:05;;;;;;;7.82;6.07;;;3.90;99.90;;;;;;4927397;28;20150;-73
2024/01/19 01:43:31;;;;;;;9.35;6.95;;;3.90;99.90;;;;;;4927165;28;20023;-72
2024/01/19 01:45:57;;;;;;;7.22;5.47;;;3.90;99.90;;;;;;4925380;28;20039;-71
2024/01/19 01:48:24;;;;;;;6.20;4.80;;;3.90;99.90;;;;;;4926924;28;20087;-74
2024/01/19 01:50:50;;;;;;;8.93;5.57;;;3.80;99.90;;;;;;4931520;28;20704;-74
2024/01/19 01:53:19;;;;;;;8.70;6.53;;;3.80;99.90;;;;;;4926434;28;20039;-72
2024/01/19 01:55:48;;;;;;;8.07;5.80;;;3.80;99.90;;;;;;4928583;28;20705;-76
2024/01/19 01:58:16;;;;;;;7.90;5.63;;;3.90;99.90;;;;;;4925381;28;20042;-77
2024/01/19 02:00:45;;;;;;;5.88;4.80;;;3.90;99.90;;;;;;4928049;28;20031;-77
2024/01/19 02:03:11;;;;;;;6.93;5.40;;;3.80;99.90;;;;;;4925938;28;20051;-77
2024/01/19 02:05:36;;;;;;;8.68;5.57;;;3.70;99.90;;;;;;4923858;28;20067;-77
2024/01/19 02:08:02;;;;;;;7.05;6.20;;;3.70;99.90;;;;;;4924038;28;20618;-77
2024/01/19 02:10:28;;;;;;;7.20;5.82;;;3.80;99.90;;;;;;4922213;28;20039;-76
2024/01/19 02:12:55;;;;;;;7.07;5.20;;;3.90;99.90;;;;;;4925149;28;21524;-76
2024/01/19 02:15:22;;;;;;;8.02;5.57;;;3.90;99.90;;;;;;4925064;28;20037;-76
2024/01/19 02:17:50;;;;;;;7.25;5.70;;;4.00;99.90;;;;;;4922699;28;20035;-72
2024/01/19 02:20:16;;;;;;;6.28;4.95;;;4.10;99.90;;;;;;4924180;28;20038;-72
2024/01/19 02:22:46;;;;;;;6.10;4.90;;;4.20;99.90;;;;;;4923296;28;20031;-72
2024/01/19 02:25:13;;;;;;;7.95;5.35;;;4.30;99.90;;;;;;4922448;28;20066;-72
2024/01/19 02:27:39;;;;;;;6.68;5.55;;;4.40;99.90;;;;;;4926433;28;20139;-72
2024/01/19 02:30:09;;;;;;;6.43;5.50;;;4.50;99.90;;;;;;4904908;28;20031;-72
2024/01/19 02:32:35;;;;;;;6.63;5.80;;;4.60;99.90;;;;;;4926016;28;20035;-71
2024/01/19 02:35:00;;;;;;;7.85;5.40;;;4.80;99.90;;;;;;4923700;28;20313;-72
2024/01/19 02:37:26;;;;;;;6.45;4.70;;;4.80;99.90;;;;;;4920811;28;20457;-73
2024/01/19 02:39:52;;;;;;;5.68;4.85;;;4.90;99.90;;;;;;4922398;28;20521;-73
2024/01/19 02:42:17;;;;;;;8.15;5.72;;;4.90;99.90;;;;;;4922268;28;20027;-73
2024/01/19 02:44:43;;;;;;;6.82;4.93;;;4.90;99.90;;;;;;4919851;28;20093;-72
2024/01/19 02:47:08;;;;;;;7.80;5.32;;;4.90;99.90;;;;;;4925098;28;20079;-74
2024/01/19 02:49:34;;;;;;;11.48;8.85;;;4.90;99.90;;;;;;4925528;28;20122;-73
2024/01/19 02:52:00;;;;;;;9.05;6.70;;;4.70;99.90;;;;;;4914298;28;20040;-73
2024/01/19 02:54:25;;;;;;;8.30;6.15;;;4.70;99.90;;;;;;4926251;28;24065;-73
2024/01/19 02:56:51;;;;;;;7.88;5.28;;;4.70;99.90;;;;;;4921694;28;20066;-73
2024/01/19 02:59:17;;;;;;;6.53;5.60;;;4.80;99.90;;;;;;4922585;28;20496;-73
2024/01/19 03:01:43;;;;;;;6.28;4.68;;;4.90;99.90;;;;;;4922580;28;20027;-73
2024/01/19 03:04:08;;;;;;;7.32;5.57;;;4.90;99.90;;;;;;4924362;28;20107;-73
2024/01/19 03:06:34;;;;;;;7.47;5.57;;;4.90;99.90;;;;;;4927612;28;20019;-73
2024/01/19 03:09:00;;;;;;;6.47;5.03;;;4.90;99.90;;;;;;4923321;28;20044;-73
2024/01/19 03:11:25;;;;;;;6.00;4.90;;;4.90;99.90;;;;;;4927912;28;20500;-73
2024/01/19 03:13:53;;;;;;;6.55;4.60;;;4.80;99.90;;;;;;4926330;28;20023;-73
2024/01/19 03:16:19;;;;;;;7.72;5.22;;;4.80;99.90;;;;;;4925248;28;20043;-73
2024/01/19 03:18:44;;;;;;;6.13;4.22;;;4.80;99.90;;;;;;4923377;28;20035;-73
2024/01/19 03:21:11;;;;;;;5.03;4.28;;;4.70;99.90;;;;;;4923422;28;20040;-73
2024/01/19 03:23:36;;;;;;;4.72;3.38;;;4.70;99.90;;;;;;4923003;28;20032;-74
2024/01/19 03:26:02;;;;;;;4.80;3.70;;;4.60;99.90;;;;;;4920098;28;20635;-73
2024/01/19 03:28:28;;;;;;;4.15;3.10;;;4.60;99.90;;;;;;4921183;28;20114;-73
2024/01/19 03:30:53;;;;;;;4.35;2.75;;;4.60;99.90;;;;;;4921449;28;20031;-79
2024/01/19 03:33:19;;;;;;;4.88;3.28;;;4.50;99.90;;;;;;4919625;28;20028;-71
2024/01/19 03:35:45;;;;;;;5.10;3.67;;;4.40;99.90;;;;;;4925296;28;20055;-72
2024/01/19 03:38:11;;;;;;;4.90;3.10;;;4.30;99.90;;;;;;4920745;28;20860;-71
2024/01/19 03:40:37;;;;;;;6.25;3.40;;;4.40;99.90;;;;;;4920831;28;20111;-70
2024/01/19 03:43:03;;;;;;;5.32;3.80;;;4.40;99.90;;;;;;4916565;28;20095;-71
2024/01/19 03:45:29;;;;;;;5.97;3.53;;;4.30;99.90;;;;;;4919357;28;20036;-70
2024/01/19 03:47:55;;;;;;;4.25;3.10;;;4.30;99.90;;;;;;4923542;28;20054;-75
2024/01/19 03:50:22;;;;;;;5.57;3.95;;;4.20;99.90;;;;;;4921779;28;20067;-71
2024/01/19 03:52:48;;;;;;;5.18;3.60;;;4.10;99.90;;;;;;4927603;28;20106;-71
2024/01/19 03:55:15;;;;;;;4.82;3.63;;;4.10;99.90;;;;;;4924598;28;20118;-70
2024/01/19 03:57:40;;;;;;;4.75;3.55;;;4.10;99.90;;;;;;4924243;28;20031;-71
2024/01/19 04:00:07;;;;;;;6.10;4.32;;;4.10;99.90;;;;;;4919473;28;20082;-71
2024/01/19 04:02:32;;;;;;;6.32;3.58;;;4.10;99.90;;;;;;4927702;28;20330;-72
2024/01/19 04:04:58;;;;;;;6.78;3.75;;;4.10;99.90;;;;;;4927007;28;20027;-72
2024/01/19 04:07:24;;;;;;;4.82;3.60;;;4.10;99.90;;;;;;4925478;28;20043;-71
2024/01/19 04:09:49;;;;;;;5.00;3.58;;;4.00;99.90;;;;;;4925439;28;20110;-71
2024/01/19 04:12:16;;;;;;;6.65;3.78;;;3.90;99.90;;;;;;4926169;28;20073;-71
2024/01/19 04:14:43;;;;;;;5.97;4.05;;;3.90;99.90;;;;;;4925643;28;20496;-72
2024/01/19 04:17:09;;;;;;;5.80;4.07;;;3.90;99.90;;;;;;4921385;28;20503;-71
2024/01/19 04:19:35;;;;;;;5.25;3.47;;;3.90;99.90;;;;;;4924745;28;20089;-71
2024/01/19 04:22:01;;;;;;;5.13;3.90;;;3.90;99.90;;;;;;4932512;28;20456;-71
2024/01/19 04:24:27;;;;;;;5.43;3.78;;;3.90;99.90;;;;;;4914101;28;20056;-69
2024/01/19 04:26:52;;;;;;;6.18;3.95;;;3.80;99.90;;;;;;4931374;28;20038;-66
2024/01/19 04:29:18;;;;;;;6.45;4.63;;;3.70;99.90;;;;;;4927998;28;20559;-66
2024/01/19 04:31:43;;;;;;;8.68;4.70;;;3.60;99.90;;;;;;4928775;28;20051;-66
2024/01/19 04:34:10;;;;;;;6.25;4.10;;;3.60;99.90;;;;;;4928115;28;20035;-65
2024/01/19 04:36:36;;;;;;;4.97;3.60;;;3.50;99.90;;;;;;4930751;28;20048;-71
2024/01/19 04:39:02;;;;;;;7.07;4.30;;;3.50;99.90;;;;;;4930322;28;20455;-71
2024/01/19 04:41:27;;;;;;;5.72;4.03;;;3.50;99.90;;;;;;4925266;28;20031;-70
2024/01/19 04:43:53;;;;;;;5.53;3.50;;;3.50;99.90;;;;;;4927492;28;20023;-70
2024/01/19 04:46:19;;;;;;;7.07;4.00;;;3.60;99.90;;;;;;4920142;28;20154;-69
2024/01/19 04:48:45;;;;;;;6.20;4.15;;;3.60;99.90;;;;;;4927292;28;20491;-69
2024/01/19 04:51:10;;;;;;;6.10;4.28;;;3.60;99.90;;;;;;4926781;28;20087;-70
2024/01/19 04:53:36;;;;;;;6.00;3.95;;;3.60;99.90;;;;;;4931584;28;20031;-67
2024/01/19 04:56:05;;;;;;;6.75;4.40;;;3.60;99.90;;;;;;4931225;28;20053;-80
2024/01/19 04:58:33;;;;;;;7.47;4.93;;;3.70;99.90;;;;;;4923989;28;20024;-78
2024/01/19 05:00:59;;;;;;;7.85;4.75;;;3.70;99.90;;;;;;4928424;28;20038;-79
2024/01/19 05:03:25;;;;;;;7.13;4.47;;;3.80;99.90;;;;;;4908926;28;20128;-79
2024/01/19 05:05:51;;;;;;;9.68;6.15;;;3.80;99.90;;;;;;4930176;28;20145;-79
2024/01/19 05:08:17;;;;;;;7.15;5.20;;;3.80;99.90;;;;;;4929965;28;20112;-79
2024/01/19 05:10:42;;;;;;;8.10;5.22;;;3.70;99.90;;;;;;4927515;28;20031;-79
2024/01/19 05:13:08;;;;;;;7.43;5.05;;;3.70;99.90;;;;;;4921057;28;20670;-67
2024/01/19 05:15:33;;;;;;;8.18;5.72;;;3.60;99.90;;;;;;4929679;28;20101;-67
2024/01/19 05:18:00;;;;;;;6.93;4.78;;;3.60;99.90;;;;;;4928977;28;20455;-67
2024/01/19 05:20:26;;;;;;;6.32;4.80;;;3.50;99.90;;;;;;4924912;28;20598;-66
2024/01/19 05:22:52;;;;;;;7.20;5.45;;;3.50;99.90;;;;;;4923893;28;20256;-67
2024/01/19 05:25:18;;;;;;;7.95;5.45;;;3.40;99.90;;;;;;4923318;28;20038;-67
2024/01/19 05:27:51;;;;;;;8.60;5.03;;;3.30;99.90;;;;;;4924314;28;20039;-67
2024/01/19 05:30:16;;;;;;;7.78;5.30;;;3.30;99.90;;;;;;4915847;28;20755;-67
2024/01/19 05:32:42;;;;;;;8.07;4.75;;;3.30;99.90;;;;;;4919731;28;20039;-67
2024/01/19 05:35:08;;;;;;;15.93;5.80;;;3.30;99.90;;;;;;4920204;28;20039;-67
2024/01/19 05:37:34;;;;;;;7.88;5.82;;;3.20;99.90;;;;;;4920937;28;20748;-67
2024/01/19 05:40:00;;;;;;;7.57;4.97;;;3.20;99.90;;;;;;4920989;28;20049;-66
2024/01/19 05:42:25;;;;;;;15.38;9.00;;;3.20;99.90;;;;;;4922756;28;20257;-66
2024/01/19 05:44:51;;;;;;;14.10;12.57;;;3.10;99.90;;;;;;4925293;28;20114;-70
2024/01/19 05:47:16;;;;;;;9.27;7.68;;;3.10;99.90;;;;;;4923573;28;20031;-68
2024/01/19 05:49:42;;;;;;;8.20;5.30;;;3.10;99.90;;;;;;4927940;28;20086;-81
2024/01/19 05:52:08;;;;;;;7.50;5.18;;;3.00;99.90;;;;;;4927200;28;20404;-80
2024/01/19 05:54:34;;;;;;;7.95;4.80;;;3.10;99.90;;;;;;4928869;28;20039;-79
2024/01/19 05:57:00;;;;;;;6.15;4.85;;;3.00;99.90;;;;;;4928568;28;20043;-76
2024/01/19 05:59:25;;;;;;;7.85;4.90;;;3.00;99.90;;;;;;4928010;28;20031;-76
2024/01/19 06:01:51;;;;;;;8.00;5.28;;;3.00;99.90;;;;;;4928452;28;20803;-77
2024/01/19 06:04:18;;;;;;;8.48;5.50;;;2.90;99.90;;;;;;4930217;28;20094;-76
2024/01/19 06:06:43;;;;;;;7.97;5.40;;;3.00;99.90;;;;;;4916532;28;20887;-78
2024/01/19 06:09:10;;;;;;;7.60;5.30;;;3.00;99.90;;;;;;4920822;28;20134;-80
2024/01/19 06:11:35;;;;;;;8.35;5.30;;;3.00;99.90;;;;;;4918360;28;20034;-78
2024/01/19 06:14:02;;;;;;;5.90;4.47;;;3.00;99.90;;;;;;4931516;28;20459;-79
2024/01/19 06:16:29;;;;;;;11.20;8.02;;;3.00;99.90;;;;;;4926702;28;20378;-77
2024/01/19 06:18:54;;;;;;;11.05;6.50;;;3.00;99.90;;;;;;4920205;28;20114;-74
2024/01/19 06:21:20;;;;;;;10.55;6.97;;;2.90;99.90;;;;;;4921625;28;20381;-72
2024/01/19 06:23:45;;;;;;;10.07;7.65;;;2.90;99.90;;;;;;4923986;28;20073;-72
2024/01/19 06:26:11;;;;;;;9.82;6.10;;;2.90;99.90;;;;;;4919858;28;20042;-70
2024/01/19 06:28:38;;;;;;;8.13;6.00;;;3.00;99.90;;;;;;4918861;28;20488;-70
2024/01/19 06:31:05;;;;;;;6.20;5.22;;;3.00;99.90;;;;;;4913754;28;20469;-70
2024/01/19 06:33:31;;;;;;;6.70;4.90;;;3.00;99.90;;;;;;4914761;28;20553;-70
2024/01/19 06:35:56;;;;;;;7.18;5.15;;;3.10;99.90;;;;;;4918131;28;20053;-71
2024/01/19 06:38:26;;;;;;;6.85;4.93;;;3.00;99.90;;;;;;4921352;28;20028;-70
2024/01/19 06:40:51;;;;;;;9.13;6.10;;;3.00;99.90;;;;;;4917772;28;20035;-71
2024/01/19 06:43:18;;;;;;;7.00;5.05;;;3.00;99.90;;;;;;4916977;28;20426;-70
2024/01/19 06:45:43;;;;;;;8.40;5.28;;;3.10;99.90;;;;;;4911264;28;20114;-70
2024/01/19 06:48:09;;;;;;;6.78;4.80;;;3.10;99.90;;;;;;4917689;28;20037;-70
2024/01/19 06:50:34;;;;;;;6.28;4.30;;;3.20;99.90;;;;;;4924464;28;20050;-70
2024/01/19 06:53:00;;;;;;;5.32;4.45;;;3.20;99.90;;;;;;4927696;28;20555;-70
2024/01/19 06:55:29;;;;;;;7.90;4.88;;;3.20;99.90;;;;;;4932350;28;20031;-70
2024/01/19 06:57:55;;;;;;;7.15;4.22;;;3.20;99.90;;;;;;4930751;28;20035;-70
2024/01/19 07:00:21;;;;;;;7.45;5.20;;;3.30;99.90;;;;;;4928120;28;20388;-71
2024/01/19 07:02:46;;;;;;;8.50;5.97;;;3.30;99.90;;;;;;4925844;28;20043;-71
2024/01/19 07:05:12;;;;;;;7.40;5.05;;;3.30;99.90;;;;;;4924664;28;20042;-70
2024/01/19 07:07:39;;;;;;;8.35;4.55;;;3.40;99.90;;;;;;4931588;28;20047;-70
2024/01/19 07:10:05;;;;;;;6.53;4.32;;;3.50;99.90;;;;;;4929039;28;20032;-71
2024/01/19 07:12:31;;;;;;;5.43;4.13;;;3.40;99.90;;;;;;4930936;28;20055;-71
2024/01/19 07:14:57;;;;;;;6.38;3.90;;;3.50;99.90;;;;;;4931068;28;20456;-71
2024/01/19 07:17:23;;;;;;;5.93;4.35;;;3.60;99.90;;;;;;4930568;28;20034;-71
2024/01/19 07:19:48;;;;;;;6.40;4.78;;;3.70;99.90;;;;;;4930389;28;20976;-70
2024/01/19 07:22:14;;;;;;;6.25;4.53;;;3.70;99.90;;;;;;4929100;28;20031;-75
2024/01/19 07:24:39;;;;;;;5.97;4.03;;;3.70;99.90;;;;;;4933212;28;20035;-75
2024/01/19 07:27:05;;;;;;;6.22;4.53;;;3.80;99.90;;;;;;4936098;28;20032;-75
2024/01/19 07:29:31;;;;;;;5.97;4.40;;;3.80;99.90;;;;;;4937453;28;20135;-75
2024/01/19 07:31:57;;;;;;;5.28;3.83;;;3.80;99.90;;;;;;4933344;28;20138;-75
2024/01/19 07:34:23;;;;;;;6.82;4.40;;;3.80;99.90;;;;;;4937799;28;20107;-75
2024/01/19 07:36:49;;;;;;;5.68;4.15;;;3.80;99.90;;;;;;4932597;28;20250;-75
2024/01/19 07:39:15;;;;;;;5.95;4.13;;;3.70;99.90;;;;;;4936327;28;20186;-71
2024/01/19 07:41:43;;;;;;;5.43;4.10;;;3.70;99.90;;;;;;4937325;28;20094;-71
2024/01/19 07:44:09;;;;;;;4.63;3.40;;;3.60;99.90;;;;;;4926095;28;20023;-71
2024/01/19 07:46:35;;;;;;;6.40;4.05;;;3.70;99.90;;;;;;4931620;28;20118;-71
2024/01/19 07:49:01;;;;;;;5.75;3.78;;;3.70;99.90;;;;;;4936445;28;20027;-71
2024/01/19 07:51:27;;;;;;;7.03;4.00;;;3.80;99.90;;;;;;4919522;28;20496;-70
2024/01/19 07:53:54;;;;;;;5.07;3.70;;;3.90;99.90;;;;;;4923942;28;20327;-70
2024/01/19 07:56:20;;;;;;;4.80;3.45;;;3.90;99.90;;;;;;4933180;28;20039;-71
2024/01/19 07:58:45;;;;;;;6.28;3.75;;;4.00;99.90;;;;;;4933666;28;20531;-71
2024/01/19 08:01:11;;;;;;;5.78;3.83;;;4.00;99.90;;;;;;4930792;28;20082;-71
2024/01/19 08:03:38;;;;;;;5.90;4.45;;;4.00;99.90;;;;;;4929847;28;20031;-71
2024/01/19 08:06:04;;;;;;;6.47;3.55;;;4.00;99.90;;;;;;4933940;28;20139;-70
2024/01/19 08:08:30;;;;;;;5.90;3.75;;;4.00;99.90;;;;;;4934899;28;20045;-71
2024/01/19 08:10:55;;;;;;;6.65;3.90;;;4.00;99.90;;;;;;4928854;28;20035;-71
2024/01/19 08:13:22;;;;;;;5.45;3.80;;;3.90;99.90;;;;;;4913407;28;20611;-71
2024/01/19 08:15:48;;;;;;;5.43;4.25;;;4.00;99.90;;;;;;4928589;28;20126;-71
2024/01/19 08:18:13;;;;;;;5.93;4.28;;;3.90;99.90;;;;;;4934732;28;20401;-70
2024/01/19 08:20:39;;;;;;;5.50;4.13;;;3.80;99.90;;;;;;4931903;28;20105;-71
2024/01/19 08:23:05;;;;;;;8.50;3.63;;;3.80;99.90;;;;;;4929475;28;20069;-71
2024/01/19 08:25:30;;;;;;;6.25;4.10;;;3.80;99.90;;;;;;4933688;28;20528;-71
2024/01/19 08:27:56;;;;;;;11.43;4.05;;;3.80;99.90;;;;;;4931648;28;20027;-70
2024/01/19 08:30:21;;;;;;;8.57;5.90;;;3.70;99.90;;;;;;4934122;28;20503;-72
2024/01/19 08:32:47;;;;;;;8.88;4.07;;;3.70;99.90;;;;;;4929835;28;20126;-71
2024/01/19 08:35:13;;;;;;;13.57;5.18;;;3.70;99.90;;;;;;4930989;28;20041;-71
2024/01/19 08:37:40;;;;;;;9.65;7.32;;;3.70;99.90;;;;;;4926074;28;20111;-69
2024/01/19 08:40:07;;;;;;;7.57;4.90;;;3.70;99.90;;;;;;4931225;28;20031;-70
2024/01/19 08:42:33;;;;;;;6.45;4.78;;;3.60;99.90;;;;;;4931757;28;20090;-71
2024/01/19 08:44:59;;;;;;;7.25;4.45;;;3.50;99.90;;;;;;4933910;28;20127;-71
2024/01/19 08:47:25;;;;;;;5.22;3.80;;;3.40;99.90;;;;;;4913789;29;20261;-70
2024/01/19 08:49:51;;;;;;;8.73;4.88;;;3.40;99.90;;;;;;4933558;28;20027;-71
2024/01/19 08:52:17;;;;;;;6.82;5.13;;;3.40;99.90;;;;;;4928473;28;20031;-71
2024/01/19 08:54:42;;;;;;;9.05;4.72;;;3.30;99.90;;;;;;4929950;28;20043;-71
2024/01/19 08:57:08;;;;;;;9.20;6.05;;;3.30;99.90;;;;;;4924104;28;20125;-71
2024/01/19 08:59:33;;;;;;;8.05;5.65;;;3.40;99.90;;;;;;4932265;28;20035;-71
2024/01/19 09:02:00;;;;;;;5.45;4.30;;;3.30;99.90;;;;;;4928478;28;20033;-71
2024/01/19 09:04:25;;;;;;;11.98;4.22;;;3.30;99.90;;;;;;4922645;28;20035;-71
2024/01/19 09:06:51;;;;;;;14.68;4.55;;;3.30;99.90;;;;;;4931251;28;20050;-70
2024/01/19 09:09:17;;;;;;;16.00;5.70;;;3.20;99.90;;;;;;4930344;28;20110;-71
2024/01/19 09:11:43;;;;;;;10.77;5.38;;;3.30;99.90;;;;;;4929656;28;20676;-71
2024/01/19 09:14:10;;;;;;;9.85;4.00;;;3.30;99.90;;;;;;4929816;28;20629;-71
2024/01/19 09:16:43;;;;;;;7.90;5.45;;;3.30;99.90;;;;;;4931301;28;20124;-71
2024/01/19 09:19:08;;;;;;;5.72;4.07;;;3.30;99.90;;;;;;4924654;28;20500;-72
2024/01/19 09:21:34;;;;;;;7.43;4.45;;;3.30;99.90;;;;;;4930361;28;20040;-71
2024/01/19 09:23:59;;;;;;;7.68;5.00;;;3.30;99.90;;;;;;4927966;28;20027;-71
2024/01/19 09:26:25;;;;;;;6.22;4.05;;;3.20;99.90;;;;;;4924409;28;20032;-71
2024/01/19 09:28:51;;;;;;;6.72;4.60;;;3.10;99.90;;;;;;4933769;28;20272;-71
2024/01/19 09:31:16;;;;;;;4.88;3.40;;;3.10;99.90;;;;;;4933853;28;20147;-70
2024/01/19 09:33:42;;;;;;;6.22;4.05;;;3.10;99.90;;;;;;4929029;28;20054;-70
2024/01/19 09:36:08;;;;;;;5.07;3.80;;;3.10;99.90;;;;;;4929370;28;20443;-71
2024/01/19 09:38:35;;;;;;;11.88;4.78;;;3.10;99.90;;;;;;4924303;28;20031;-70
2024/01/19 09:41:19;;;;;;;5.50;3.88;;;3.10;99.90;;;;;;4930178;28;20476;-71
2024/01/19 09:43:47;;;;;;;11.05;4.97;;;3.10;99.90;;;;;;4932099;28;20034;-71
2024/01/19 09:46:21;;;;;;;6.57;4.40;;;3.10;99.90;;;;;;4929622;28;20031;-71
2024/01/19 09:49:28;;;;;;;5.82;4.45;;;3.00;99.90;;;;;;4912640;28;20109;-70
2024/01/19 09:52:03;;;;;;;6.25;4.22;;;3.00;99.90;;;;;;4868661;29;20028;-70
2024/01/19 09:54:36;;;;;;;6.63;4.15;;;2.90;99.90;;;;;;4875405;29;20096;-71
2024/01/19 09:57:03;;;;;;;6.65;3.90;;;3.00;99.90;;;;;;4901584;28;20054;-71
2024/01/19 09:59:33;;;;;;;4.38;3.17;;;3.00;99.90;;;;;;4913926;28;20500;-72
2024/01/19 10:02:00;;;;;;;5.00;3.25;;;2.80;99.90;;;;;;4930729;28;20043;-71
2024/01/19 10:04:27;;;;;;;7.38;5.18;;;2.70;99.90;;;;;;4929525;28;20114;-70
2024/01/19 10:06:54;;;;;;;6.30;4.30;;;2.60;99.90;;;;;;4923634;28;20052;-71
2024/01/19 10:09:21;;;;;;;5.80;3.65;;;2.80;99.90;;;;;;4933538;28;20038;-70
2024/01/19 10:11:50;;;;;;;11.65;5.40;;;2.80;99.90;;;;;;4929179;28;20027;-71
2024/01/19 10:14:16;;;;;;;8.65;6.20;;;2.80;99.90;;;;;;4930433;28;20046;-71
2024/01/19 10:16:42;;;;;;;4.93;3.40;;;2.90;99.90;;;;;;4928329;28;20043;-71
2024/01/19 10:19:10;;;;;;;8.10;5.80;;;3.00;99.90;;;;;;4924001;28;20614;-70
2024/01/19 10:21:35;;;;;;;8.32;5.03;;;3.00;99.90;;;;;;4932782;28;20471;-70
2024/01/19 10:24:19;;;;;;;25.13;6.40;;;3.00;99.90;;;;;;4925658;28;20253;-71
2024/01/19 10:26:55;;;;;;;27.40;5.65;;;3.00;99.90;;;;;;4906030;28;20113;-77
2024/01/19 10:29:21;;;;;;;8.05;5.38;;;3.00;99.90;;;;;;4928825;28;20057;-76
2024/01/19 10:31:55;;;;;;;10.45;8.18;;;3.00;99.90;;;;;;4930582;28;20035;-77
2024/01/19 10:34:23;;;;;;;11.93;5.18;;;3.00;99.90;;;;;;4921713;28;20114;-74
2024/01/19 10:36:50;;;;;;;6.43;4.90;;;3.00;99.90;;;;;;4929536;28;20047;-76
2024/01/19 10:39:23;;;;;;;7.63;4.75;;;3.10;99.90;;;;;;4931070;28;20768;-73
2024/01/19 10:41:51;;;;;;;13.10;5.03;;;3.10;99.90;;;;;;4924426;28;20126;-72
2024/01/19 10:44:20;;;;;;;7.43;4.10;;;3.10;99.90;;;;;;4930236;28;20031;-69
2024/01/19 10:46:46;;;;;;;8.73;4.63;;;3.10;99.90;;;;;;4931416;28;20061;-71
2024/01/19 10:49:15;;;;;;;7.55;4.88;;;3.10;99.90;;;;;;4931757;28;20428;-71
2024/01/19 10:51:44;;;;;;;8.40;4.55;;;3.10;99.90;;;;;;4927712;28;20694;-71
2024/01/19 10:54:16;;;;;;;8.68;5.65;;;3.10;99.90;;;;;;4930985;28;20074;-70
2024/01/19 10:56:46;;;;;;;10.90;5.72;;;3.10;99.90;;;;;;4927179;28;20046;-70
2024/01/19 10:59:13;;;;;;;8.45;6.18;;;3.10;99.90;;;;;;4930839;28;20027;-70
2024/01/19 11:01:40;;;;;;;9.60;5.35;;;3.10;99.90;;;;;;4923668;28;20035;-70
2024/01/19 11:04:10;;;;;;;10.73;5.32;;;3.10;99.90;;;;;;4931176;28;20038;-70
2024/01/19 11:06:36;;;;;;;12.90;6.25;;;3.10;99.90;;;;;;4929635;28;20031;-70
2024/01/19 11:09:06;;;;;;;7.30;5.05;;;3.10;99.90;;;;;;4932136;28;20098;-71
2024/01/19 11:11:44;;;;;;;7.40;4.97;;;3.10;99.90;;;;;;4930920;28;20153;-71
2024/01/19 11:14:15;;;;;;;7.63;5.22;;;3.10;99.90;;;;;;4931934;28;20388;-70
2024/01/19 11:16:46;;;;;;;7.07;4.97;;;3.10;99.90;;;;;;4931358;28;20058;-70
2024/01/19 11:19:13;;;;;;;7.60;4.97;;;3.00;99.90;;;;;;4930048;28;20590;-70
2024/01/19 11:21:41;;;;;;;6.70;4.95;;;3.00;99.90;;;;;;4927824;28;20031;-70
2024/01/19 11:24:07;;;;;;;7.35;4.90;;;2.80;99.90;;;;;;4927202;28;20055;-70
2024/01/19 11:26:41;;;;;;;12.85;5.30;;;2.80;99.90;;;;;;4931507;28;20043;-72
2024/01/19 11:29:31;;;;;;;9.82;7.30;;;2.80;99.90;;;;;;4916442;28;20028;-72
2024/01/19 11:31:58;;;;;;;10.52;6.07;;;2.80;99.90;;;;;;4931048;28;20039;-72
2024/01/19 11:34:41;;;;;;;8.15;4.35;;;2.90;99.90;;;;;;4930405;28;20034;-72
2024/01/19 11:37:08;;;;;;;15.45;4.38;;;2.90;99.90;;;;;;4929905;28;20141;-72
2024/01/19 11:39:40;;;;;;;12.00;4.05;;;3.00;99.90;;;;;;4926712;28;20563;-73
2024/01/19 11:42:26;;;;;;;8.02;3.92;;;3.10;99.90;;;;;;4905831;28;20637;-72
2024/01/19 11:44:51;;;;;;;5.70;4.38;;;3.10;99.90;;;;;;4930973;28;20032;-71
2024/01/19 11:47:35;;;;;;;6.00;4.07;;;3.10;99.90;;;;;;4932397;28;20582;-71
2024/01/19 11:50:06;;;;;;;6.13;3.50;;;3.10;99.90;;;;;;4918998;28;20148;-71
2024/01/19 11:52:41;;;;;;;20.27;12.75;;;3.00;99.90;;;;;;4916495;28;20019;-71
2024/01/19 11:55:25;;;;;;;28.65;25.55;;;3.00;99.90;;;;;;4919516;28;20031;-70
2024/01/19 11:57:51;;;;;;;9.63;8.02;;;3.00;99.90;;;;;;4918963;28;20136;-72
2024/01/19 12:00:18;;;;;;;7.55;4.82;;;3.00;99.90;;;;;;4918197;28;20063;-73
2024/01/19 12:02:45;;;;;;;11.40;8.30;;;3.00;99.90;;;;;;4926018;28;20451;-74
2024/01/19 12:05:11;;;;;;;9.57;7.40;;;3.00;99.90;;;;;;4928598;28;20501;-74
2024/01/19 12:07:37;;;;;;;8.13;5.47;;;3.00;99.90;;;;;;4925582;28;20074;-74
2024/01/19 12:10:18;;;;;;;8.95;5.05;;;3.00;99.90;;;;;;4925014;28;20031;-74
2024/01/19 12:12:43;;;;;;;7.30;5.28;;;3.10;99.90;;;;;;4928875;28;20035;-74
2024/01/19 12:15:10;;;;;;;7.47;5.07;;;3.10;99.90;;;;;;4924904;28;20396;-74
2024/01/19 12:17:40;;;;;;;6.55;4.40;;;3.20;99.90;;;;;;4923939;28;20058;-74
2024/01/19 12:20:09;;;;;;;6.70;4.63;;;3.30;99.90;;;;;;4923052;28;20027;-74
2024/01/19 12:22:38;;;;;;;9.35;5.22;;;3.30;99.90;;;;;;4931083;28;21241;-73
2024/01/19 12:25:13;;;;;;;8.30;5.05;;;3.30;99.90;;;;;;4931113;28;20046;-74
2024/01/19 12:27:39;;;;;;;6.82;4.75;;;3.40;99.90;;;;;;4909364;28;20038;-74
2024/01/19 12:30:16;;;;;;;7.57;4.60;;;3.30;99.90;;;;;;4928204;28;20049;-74
2024/01/19 12:32:42;;;;;;;7.30;4.72;;;3.20;99.90;;;;;;4931436;28;20093;-72
2024/01/19 12:35:08;;;;;;;5.63;4.28;;;3.20;99.90;;;;;;4925188;28;20070;-73
2024/01/19 12:37:34;;;;;;;5.65;3.97;;;3.20;99.90;;;;;;4926722;28;20699;-73
2024/01/19 12:40:14;;;;;;;5.95;4.30;;;3.10;99.90;;;;;;4928142;28;20404;-72
2024/01/19 12:42:41;;;;;;;7.70;5.13;;;3.10;99.90;;;;;;4926833;28;20062;-72
2024/01/19 12:45:11;;;;;;;6.57;4.55;;;3.10;99.90;;;;;;4907590;28;20060;-73
2024/01/19 12:47:43;;;;;;;6.20;4.65;;;3.00;99.90;;;;;;4927573;28;20145;-73
2024/01/19 12:50:10;;;;;;;8.80;5.80;;;3.10;99.90;;;;;;4926070;28;20035;-73
2024/01/19 12:52:35;;;;;;;6.75;4.57;;;3.10;99.90;;;;;;4929107;28;20470;-73
2024/01/19 12:55:01;;;;;;;5.47;3.92;;;3.20;99.90;;;;;;4928408;28;20024;-72